Vining, IA (52348)

11:07 AM CDT on August 21, 2014 (GMT -0500)
The Llama Pasture | Change Station
CLOSE
Current Station
Personal Weather Station
Location: Van Horne, IA
Elevation: 944 ft
Nearby Weather Stations

Elev 944 ft 42.02 °N, 92.11 °W | Updated 2 seconds ago

Scattered Clouds
Scattered Clouds
77.8 °F
Feels Like 80 °F
N
4.0
Wind Variable Wind from WNW
Gusts 5.0 mph

Today
High -- | Low -- °F
--% Chance of Precip.
Yesterday
High -- | Low -- °F
Precip. -- in
6:23 AM 8:00 PM
Waning Crescent, 13% visible
Pressure 29.91 in
Visibility 7.0 miles
Clouds Scattered Clouds 1000 ft
Scattered Clouds 1700 ft
Scattered Clouds 3000 ft
Heat Index 80 °F
Dew Point 74 °F
Humidity 89%
Rainfall 0.07 in
Snow Depth Not available.
UV 6 out of 12
Pollen 6.60 out of 12
Air Quality Not available.
Flu Activity Not available.
METAR KVTI 211555Z AUTO 14003KT 7SM SCT010 SCT017 SCT030 26/23 A2991 RMK AO2 P0005 T02550226

More Conditions Fewer Conditions

Pressure 29.91 in
Visibility 7.0 miles
Clouds Scattered Clouds 1000 ft
Scattered Clouds 1700 ft
Scattered Clouds 3000 ft
Heat Index 80 °F
Dew Point 74 °F
Humidity 89%
Rainfall 0.07 in
Snow Depth Not available.
UV 6 out of 12
Pollen 6.60 out of 12
Air Quality Not available.
Flu Activity Not available.
METAR KVTI 211555Z AUTO 14003KT 7SM SCT010 SCT017 SCT030 26/23 A2991 RMK AO2 P0005 T02550226

More Conditions Fewer Conditions

10-Day Weather Forecast

Almanac

Astronomy

Aug. 21, 2014 Rise Set
Actual Time 6:23 AM CDT 8:00 PM CDT
Civil Twilight 5:54 AM CDT 8:30 PM CDT
Nautical Twilight 5:18 AM CDT 9:05 PM CDT
Astronomical Twilight 4:40 AM CDT 9:43 PM CDT
Moon 2:52 AM CDT 5:31 PM CDT
Length of Visible Light 14h 36m
Length of Day
13h 37m
Tomorrow will be 2m 35s shorter.
Waning Crescent, 13% of the Moon is Illuminated
Today
Waning Crescent
Aug 25
New
Sep 2
First Quarter
Sep 8
Full
Sep 15
Last Quarter

Today's Extremes

State Highs State Lows

Community

WunderPhotos

Upload Photos

1,745,950 photos uploaded!

Nearby

Snow Depth

Station Depth Elevation
No new snow has been reported.

Earthquake Activity

City Distance Mag. Time & Date
No recent earthquake activity has been reported nearby.
Minimum magnitude displayed is 2.5.

Coastal Water Temperatures

Place Temperature
No Stations Reporting

Nearby Weather Stations